sensor_id;sensor_type;location;lat;lon;timestamp;P1;durP1;ratioP1;P2;durP2;ratioP2
52432;SDS011;38352;53.244;6.594;2023-08-07T00:00:53;12.00;;;4.88;;
52432;SDS011;38352;53.244;6.594;2023-08-07T00:03:19;9.45;;;5.72;;
52432;SDS011;38352;53.244;6.594;2023-08-07T00:05:46;10.27;;;5.95;;
52432;SDS011;38352;53.244;6.594;2023-08-07T00:08:12;14.07;;;6.72;;
52432;SDS011;38352;53.244;6.594;2023-08-07T00:10:38;9.40;;;6.43;;
52432;SDS011;38352;53.244;6.594;2023-08-07T00:13:05;15.85;;;6.78;;
52432;SDS011;38352;53.244;6.594;2023-08-07T00:15:31;12.98;;;7.40;;
52432;SDS011;38352;53.244;6.594;2023-08-07T00:17:58;13.55;;;7.03;;
52432;SDS011;38352;53.244;6.594;2023-08-07T00:20:24;10.82;;;7.63;;
52432;SDS011;38352;53.244;6.594;2023-08-07T00:22:50;13.63;;;6.28;;
52432;SDS011;38352;53.244;6.594;2023-08-07T00:25:16;9.15;;;5.78;;
52432;SDS011;38352;53.244;6.594;2023-08-07T00:27:42;13.02;;;6.72;;
52432;SDS011;38352;53.244;6.594;2023-08-07T00:30:09;9.00;;;4.95;;
52432;SDS011;38352;53.244;6.594;2023-08-07T00:32:35;10.98;;;5.03;;
52432;SDS011;38352;53.244;6.594;2023-08-07T00:35:01;7.60;;;4.10;;
52432;SDS011;38352;53.244;6.594;2023-08-07T00:37:28;9.25;;;3.90;;
52432;SDS011;38352;53.244;6.594;2023-08-07T00:39:54;8.00;;;3.88;;
52432;SDS011;38352;53.244;6.594;2023-08-07T00:42:20;8.23;;;3.80;;
52432;SDS011;38352;53.244;6.594;2023-08-07T00:44:46;6.60;;;3.72;;
52432;SDS011;38352;53.244;6.594;2023-08-07T00:47:12;7.20;;;3.58;;
52432;SDS011;38352;53.244;6.594;2023-08-07T00:49:38;10.70;;;4.00;;
52432;SDS011;38352;53.244;6.594;2023-08-07T00:52:05;7.32;;;3.53;;
52432;SDS011;38352;53.244;6.594;2023-08-07T00:54:31;6.63;;;3.85;;
52432;SDS011;38352;53.244;6.594;2023-08-07T00:57:03;6.78;;;3.45;;
52432;SDS011;38352;53.244;6.594;2023-08-07T00:59:34;9.70;;;3.80;;
52432;SDS011;38352;53.244;6.594;2023-08-07T01:02:00;6.75;;;3.45;;
52432;SDS011;38352;53.244;6.594;2023-08-07T01:04:26;8.73;;;4.47;;
52432;SDS011;38352;53.244;6.594;2023-08-07T01:06:53;7.25;;;4.00;;
52432;SDS011;38352;53.244;6.594;2023-08-07T01:09:19;10.38;;;5.30;;
52432;SDS011;38352;53.244;6.594;2023-08-07T01:11:48;10.55;;;4.70;;
52432;SDS011;38352;53.244;6.594;2023-08-07T01:17:06;11.60;;;4.93;;
52432;SDS011;38352;53.244;6.594;2023-08-07T01:19:33;8.30;;;4.10;;
52432;SDS011;38352;53.244;6.594;2023-08-07T01:22:14;7.25;;;4.13;;
52432;SDS011;38352;53.244;6.594;2023-08-07T01:24:42;9.45;;;4.82;;
52432;SDS011;38352;53.244;6.594;2023-08-07T01:29:43;8.48;;;4.40;;
52432;SDS011;38352;53.244;6.594;2023-08-07T01:32:10;12.88;;;5.10;;
52432;SDS011;38352;53.244;6.594;2023-08-07T01:34:39;13.48;;;4.68;;
52432;SDS011;38352;53.244;6.594;2023-08-07T01:37:07;7.60;;;4.82;;
52432;SDS011;38352;53.244;6.594;2023-08-07T01:39:33;7.35;;;4.55;;
52432;SDS011;38352;53.244;6.594;2023-08-07T01:42:00;22.17;;;5.60;;
52432;SDS011;38352;53.244;6.594;2023-08-07T01:44:27;10.57;;;4.70;;
52432;SDS011;38352;53.244;6.594;2023-08-07T01:46:54;11.32;;;3.88;;
52432;SDS011;38352;53.244;6.594;2023-08-07T01:49:20;12.13;;;4.22;;
52432;SDS011;38352;53.244;6.594;2023-08-07T01:51:46;8.95;;;3.55;;
52432;SDS011;38352;53.244;6.594;2023-08-07T01:54:12;8.57;;;3.78;;
52432;SDS011;38352;53.244;6.594;2023-08-07T01:56:38;7.35;;;3.67;;
52432;SDS011;38352;53.244;6.594;2023-08-07T01:59:04;7.68;;;4.10;;
52432;SDS011;38352;53.244;6.594;2023-08-07T02:01:30;9.93;;;4.38;;
52432;SDS011;38352;53.244;6.594;2023-08-07T02:03:56;11.50;;;3.95;;
52432;SDS011;38352;53.244;6.594;2023-08-07T02:06:22;9.32;;;4.38;;
52432;SDS011;38352;53.244;6.594;2023-08-07T02:08:48;8.07;;;4.30;;
52432;SDS011;38352;53.244;6.594;2023-08-07T02:11:14;8.95;;;4.38;;
52432;SDS011;38352;53.244;6.594;2023-08-07T02:13:40;9.95;;;4.50;;
52432;SDS011;38352;53.244;6.594;2023-08-07T02:16:06;10.63;;;4.90;;
52432;SDS011;38352;53.244;6.594;2023-08-07T02:18:33;8.57;;;4.95;;
52432;SDS011;38352;53.244;6.594;2023-08-07T02:20:59;9.07;;;4.60;;
52432;SDS011;38352;53.244;6.594;2023-08-07T02:23:25;13.05;;;4.82;;
52432;SDS011;38352;53.244;6.594;2023-08-07T02:25:53;9.30;;;4.35;;
52432;SDS011;38352;53.244;6.594;2023-08-07T02:28:19;13.80;;;4.47;;
52432;SDS011;38352;53.244;6.594;2023-08-07T02:30:45;10.32;;;5.10;;
52432;SDS011;38352;53.244;6.594;2023-08-07T02:33:16;12.25;;;4.95;;
52432;SDS011;38352;53.244;6.594;2023-08-07T02:35:42;9.57;;;5.35;;
52432;SDS011;38352;53.244;6.594;2023-08-07T02:38:08;12.95;;;5.35;;
52432;SDS011;38352;53.244;6.594;2023-08-07T02:40:35;13.48;;;5.65;;
52432;SDS011;38352;53.244;6.594;2023-08-07T02:43:01;11.88;;;4.75;;
52432;SDS011;38352;53.244;6.594;2023-08-07T02:45:27;12.13;;;5.00;;
52432;SDS011;38352;53.244;6.594;2023-08-07T02:47:53;13.30;;;5.63;;
52432;SDS011;38352;53.244;6.594;2023-08-07T02:50:19;13.15;;;5.22;;
52432;SDS011;38352;53.244;6.594;2023-08-07T02:52:45;21.02;;;5.22;;
52432;SDS011;38352;53.244;6.594;2023-08-07T02:55:11;11.15;;;4.53;;
52432;SDS011;38352;53.244;6.594;2023-08-07T02:57:37;12.20;;;4.93;;
52432;SDS011;38352;53.244;6.594;2023-08-07T03:00:06;12.10;;;4.82;;
52432;SDS011;38352;53.244;6.594;2023-08-07T03:02:34;12.13;;;4.65;;
52432;SDS011;38352;53.244;6.594;2023-08-07T03:05:08;10.88;;;4.80;;
52432;SDS011;38352;53.244;6.594;2023-08-07T03:07:34;11.90;;;4.93;;
52432;SDS011;38352;53.244;6.594;2023-08-07T03:10:03;10.55;;;4.50;;
52432;SDS011;38352;53.244;6.594;2023-08-07T03:12:29;11.40;;;4.95;;
52432;SDS011;38352;53.244;6.594;2023-08-07T03:14:57;12.50;;;4.55;;
52432;SDS011;38352;53.244;6.594;2023-08-07T03:17:23;12.82;;;4.35;;
52432;SDS011;38352;53.244;6.594;2023-08-07T03:19:57;14.43;;;5.03;;
52432;SDS011;38352;53.244;6.594;2023-08-07T03:22:23;10.38;;;4.18;;
52432;SDS011;38352;53.244;6.594;2023-08-07T03:27:35;15.20;;;4.57;;
52432;SDS011;38352;53.244;6.594;2023-08-07T03:30:12;10.55;;;4.65;;
52432;SDS011;38352;53.244;6.594;2023-08-07T03:32:38;11.50;;;4.45;;
52432;SDS011;38352;53.244;6.594;2023-08-07T03:35:07;13.25;;;4.10;;
52432;SDS011;38352;53.244;6.594;2023-08-07T03:37:33;12.93;;;4.30;;
52432;SDS011;38352;53.244;6.594;2023-08-07T03:40:01;9.13;;;4.10;;
52432;SDS011;38352;53.244;6.594;2023-08-07T03:42:28;12.23;;;3.85;;
52432;SDS011;38352;53.244;6.594;2023-08-07T03:44:56;8.90;;;3.67;;
52432;SDS011;38352;53.244;6.594;2023-08-07T03:47:24;8.43;;;3.50;;
52432;SDS011;38352;53.244;6.594;2023-08-07T03:49:50;12.88;;;3.88;;
52432;SDS011;38352;53.244;6.594;2023-08-07T03:52:19;20.20;;;5.50;;
52432;SDS011;38352;53.244;6.594;2023-08-07T03:54:48;9.75;;;3.97;;
52432;SDS011;38352;53.244;6.594;2023-08-07T03:57:24;13.48;;;4.07;;
52432;SDS011;38352;53.244;6.594;2023-08-07T03:59:51;11.65;;;4.28;;
52432;SDS011;38352;53.244;6.594;2023-08-07T04:02:17;14.65;;;4.65;;
52432;SDS011;38352;53.244;6.594;2023-08-07T04:04:50;17.40;;;5.10;;
52432;SDS011;38352;53.244;6.594;2023-08-07T04:07:19;17.92;;;5.10;;
52432;SDS011;38352;53.244;6.594;2023-08-07T04:09:55;14.38;;;5.68;;
52432;SDS011;38352;53.244;6.594;2023-08-07T04:12:24;17.60;;;5.20;;
52432;SDS011;38352;53.244;6.594;2023-08-07T04:14:53;16.30;;;5.30;;
52432;SDS011;38352;53.244;6.594;2023-08-07T04:17:21;16.98;;;5.60;;
52432;SDS011;38352;53.244;6.594;2023-08-07T04:19:54;15.27;;;4.75;;
52432;SDS011;38352;53.244;6.594;2023-08-07T04:22:20;20.08;;;6.05;;
52432;SDS011;38352;53.244;6.594;2023-08-07T04:24:51;22.92;;;5.50;;
52432;SDS011;38352;53.244;6.594;2023-08-07T04:27:17;16.00;;;5.80;;
52432;SDS011;38352;53.244;6.594;2023-08-07T04:29:54;14.55;;;4.70;;
52432;SDS011;38352;53.244;6.594;2023-08-07T04:32:20;17.85;;;5.30;;
52432;SDS011;38352;53.244;6.594;2023-08-07T04:34:46;12.48;;;4.97;;
52432;SDS011;38352;53.244;6.594;2023-08-07T04:37:15;16.15;;;5.07;;
52432;SDS011;38352;53.244;6.594;2023-08-07T04:39:41;17.17;;;5.10;;
52432;SDS011;38352;53.244;6.594;2023-08-07T04:42:07;20.90;;;6.07;;
52432;SDS011;38352;53.244;6.594;2023-08-07T04:44:33;16.00;;;5.50;;
52432;SDS011;38352;53.244;6.594;2023-08-07T04:47:00;15.05;;;4.70;;
52432;SDS011;38352;53.244;6.594;2023-08-07T04:49:26;14.20;;;5.43;;
52432;SDS011;38352;53.244;6.594;2023-08-07T04:51:55;12.45;;;4.47;;
52432;SDS011;38352;53.244;6.594;2023-08-07T04:54:41;11.25;;;4.50;;
52432;SDS011;38352;53.244;6.594;2023-08-07T04:57:10;13.88;;;4.88;;
52432;SDS011;38352;53.244;6.594;2023-08-07T04:59:44;16.23;;;4.68;;
52432;SDS011;38352;53.244;6.594;2023-08-07T05:02:19;17.42;;;4.30;;
52432;SDS011;38352;53.244;6.594;2023-08-07T05:04:50;12.98;;;4.40;;
52432;SDS011;38352;53.244;6.594;2023-08-07T05:07:19;16.80;;;4.63;;
52432;SDS011;38352;53.244;6.594;2023-08-07T05:10:09;12.68;;;4.63;;
52432;SDS011;38352;53.244;6.594;2023-08-07T05:12:35;16.13;;;4.55;;
52432;SDS011;38352;53.244;6.594;2023-08-07T05:15:07;14.20;;;4.35;;
52432;SDS011;38352;53.244;6.594;2023-08-07T05:17:45;13.73;;;5.05;;
52432;SDS011;38352;53.244;6.594;2023-08-07T05:20:17;18.92;;;5.22;;
52432;SDS011;38352;53.244;6.594;2023-08-07T05:25:14;16.95;;;5.07;;
52432;SDS011;38352;53.244;6.594;2023-08-07T05:27:43;14.02;;;6.03;;
52432;SDS011;38352;53.244;6.594;2023-08-07T05:30:20;16.70;;;4.97;;
52432;SDS011;38352;53.244;6.594;2023-08-07T05:32:48;16.02;;;4.38;;
52432;SDS011;38352;53.244;6.594;2023-08-07T05:35:23;12.15;;;4.30;;
52432;SDS011;38352;53.244;6.594;2023-08-07T05:37:55;9.50;;;4.57;;
52432;SDS011;38352;53.244;6.594;2023-08-07T05:40:22;14.75;;;4.68;;
52432;SDS011;38352;53.244;6.594;2023-08-07T05:42:48;13.88;;;4.28;;
52432;SDS011;38352;53.244;6.594;2023-08-07T05:45:19;18.42;;;4.78;;
52432;SDS011;38352;53.244;6.594;2023-08-07T05:47:45;10.57;;;4.95;;
52432;SDS011;38352;53.244;6.594;2023-08-07T05:50:11;19.88;;;4.93;;
52432;SDS011;38352;53.244;6.594;2023-08-07T05:52:37;13.57;;;4.32;;
52432;SDS011;38352;53.244;6.594;2023-08-07T05:55:04;12.65;;;3.85;;
52432;SDS011;38352;53.244;6.594;2023-08-07T05:57:30;16.27;;;4.38;;
52432;SDS011;38352;53.244;6.594;2023-08-07T06:00:01;15.57;;;4.72;;
52432;SDS011;38352;53.244;6.594;2023-08-07T06:02:29;15.25;;;3.88;;
52432;SDS011;38352;53.244;6.594;2023-08-07T06:04:55;14.35;;;4.00;;
52432;SDS011;38352;53.244;6.594;2023-08-07T06:07:22;11.80;;;4.28;;
52432;SDS011;38352;53.244;6.594;2023-08-07T06:09:48;17.00;;;3.85;;
52432;SDS011;38352;53.244;6.594;2023-08-07T06:12:14;13.18;;;4.80;;
52432;SDS011;38352;53.244;6.594;2023-08-07T06:14:46;12.63;;;3.65;;
52432;SDS011;38352;53.244;6.594;2023-08-07T06:17:12;10.50;;;3.17;;
52432;SDS011;38352;53.244;6.594;2023-08-07T06:19:38;7.55;;;2.92;;
52432;SDS011;38352;53.244;6.594;2023-08-07T06:22:04;9.43;;;2.75;;
52432;SDS011;38352;53.244;6.594;2023-08-07T06:24:30;12.52;;;3.03;;
52432;SDS011;38352;53.244;6.594;2023-08-07T06:26:56;9.02;;;2.78;;
52432;SDS011;38352;53.244;6.594;2023-08-07T06:29:25;9.75;;;2.65;;
52432;SDS011;38352;53.244;6.594;2023-08-07T06:31:51;14.35;;;2.78;;
52432;SDS011;38352;53.244;6.594;2023-08-07T06:34:18;14.05;;;3.33;;
52432;SDS011;38352;53.244;6.594;2023-08-07T06:36:44;11.85;;;3.78;;
52432;SDS011;38352;53.244;6.594;2023-08-07T06:39:13;15.40;;;3.45;;
52432;SDS011;38352;53.244;6.594;2023-08-07T06:41:39;11.95;;;2.55;;
52432;SDS011;38352;53.244;6.594;2023-08-07T06:44:05;9.57;;;2.92;;
52432;SDS011;38352;53.244;6.594;2023-08-07T06:46:31;8.27;;;3.10;;
52432;SDS011;38352;53.244;6.594;2023-08-07T06:49:01;11.93;;;3.67;;
52432;SDS011;38352;53.244;6.594;2023-08-07T06:51:27;7.78;;;3.15;;
52432;SDS011;38352;53.244;6.594;2023-08-07T06:53:53;12.43;;;4.80;;
52432;SDS011;38352;53.244;6.594;2023-08-07T06:56:19;12.75;;;4.05;;
52432;SDS011;38352;53.244;6.594;2023-08-07T06:58:48;16.13;;;4.15;;
52432;SDS011;38352;53.244;6.594;2023-08-07T07:01:14;12.30;;;3.47;;
52432;SDS011;38352;53.244;6.594;2023-08-07T07:03:40;12.00;;;3.63;;
52432;SDS011;38352;53.244;6.594;2023-08-07T07:06:07;12.80;;;3.45;;
52432;SDS011;38352;53.244;6.594;2023-08-07T07:08:33;9.32;;;4.10;;
52432;SDS011;38352;53.244;6.594;2023-08-07T07:11:02;10.45;;;3.60;;
52432;SDS011;38352;53.244;6.594;2023-08-07T07:13:31;11.25;;;3.33;;
52432;SDS011;38352;53.244;6.594;2023-08-07T07:15:57;10.48;;;3.55;;
52432;SDS011;38352;53.244;6.594;2023-08-07T07:18:23;14.00;;;3.65;;
52432;SDS011;38352;53.244;6.594;2023-08-07T07:21:00;14.25;;;3.42;;
52432;SDS011;38352;53.244;6.594;2023-08-07T07:23:27;14.45;;;3.75;;
52432;SDS011;38352;53.244;6.594;2023-08-07T07:25:53;11.70;;;3.90;;
52432;SDS011;38352;53.244;6.594;2023-08-07T07:28:20;19.17;;;5.10;;
52432;SDS011;38352;53.244;6.594;2023-08-07T07:30:51;15.70;;;3.75;;
52432;SDS011;38352;53.244;6.594;2023-08-07T07:33:18;15.55;;;3.63;;
52432;SDS011;38352;53.244;6.594;2023-08-07T07:35:44;10.32;;;3.13;;
52432;SDS011;38352;53.244;6.594;2023-08-07T07:38:17;13.05;;;3.38;;
52432;SDS011;38352;53.244;6.594;2023-08-07T07:40:44;13.50;;;3.33;;
52432;SDS011;38352;53.244;6.594;2023-08-07T07:43:10;9.40;;;3.55;;
52432;SDS011;38352;53.244;6.594;2023-08-07T07:45:36;11.10;;;2.90;;
52432;SDS011;38352;53.244;6.594;2023-08-07T07:48:03;10.68;;;2.70;;
52432;SDS011;38352;53.244;6.594;2023-08-07T07:50:30;11.85;;;3.13;;
52432;SDS011;38352;53.244;6.594;2023-08-07T07:52:56;9.23;;;3.08;;
52432;SDS011;38352;53.244;6.594;2023-08-07T07:55:22;9.70;;;3.03;;
52432;SDS011;38352;53.244;6.594;2023-08-07T07:57:49;8.38;;;2.78;;
52432;SDS011;38352;53.244;6.594;2023-08-07T08:00:15;12.57;;;3.47;;
52432;SDS011;38352;53.244;6.594;2023-08-07T08:02:42;9.10;;;3.20;;
52432;SDS011;38352;53.244;6.594;2023-08-07T08:05:08;9.82;;;2.85;;
52432;SDS011;38352;53.244;6.594;2023-08-07T08:07:36;10.10;;;3.28;;
52432;SDS011;38352;53.244;6.594;2023-08-07T08:10:05;11.50;;;3.30;;
52432;SDS011;38352;53.244;6.594;2023-08-07T08:12:44;7.88;;;3.22;;
52432;SDS011;38352;53.244;6.594;2023-08-07T08:15:10;11.13;;;4.65;;
52432;SDS011;38352;53.244;6.594;2023-08-07T08:17:39;12.02;;;3.15;;
52432;SDS011;38352;53.244;6.594;2023-08-07T08:20:07;13.57;;;3.42;;
52432;SDS011;38352;53.244;6.594;2023-08-07T08:22:34;11.68;;;3.80;;
52432;SDS011;38352;53.244;6.594;2023-08-07T08:25:00;12.68;;;3.95;;
52432;SDS011;38352;53.244;6.594;2023-08-07T08:27:26;15.07;;;3.95;;
52432;SDS011;38352;53.244;6.594;2023-08-07T08:29:52;12.73;;;3.38;;
52432;SDS011;38352;53.244;6.594;2023-08-07T08:32:18;8.02;;;2.85;;
52432;SDS011;38352;53.244;6.594;2023-08-07T08:34:45;11.25;;;3.35;;
52432;SDS011;38352;53.244;6.594;2023-08-07T08:37:11;12.52;;;3.70;;
52432;SDS011;38352;53.244;6.594;2023-08-07T08:39:37;12.50;;;3.10;;
52432;SDS011;38352;53.244;6.594;2023-08-07T08:42:03;12.18;;;2.65;;
52432;SDS011;38352;53.244;6.594;2023-08-07T08:44:30;9.85;;;3.45;;
52432;SDS011;38352;53.244;6.594;2023-08-07T08:46:58;10.30;;;3.03;;
52432;SDS011;38352;53.244;6.594;2023-08-07T08:49:28;14.77;;;2.63;;
52432;SDS011;38352;53.244;6.594;2023-08-07T08:51:59;11.10;;;2.58;;
52432;SDS011;38352;53.244;6.594;2023-08-07T08:54:25;12.40;;;3.25;;
52432;SDS011;38352;53.244;6.594;2023-08-07T08:56:52;10.93;;;2.45;;
52432;SDS011;38352;53.244;6.594;2023-08-07T08:59:19;8.50;;;2.53;;
52432;SDS011;38352;53.244;6.594;2023-08-07T09:01:46;10.10;;;2.38;;
52432;SDS011;38352;53.244;6.594;2023-08-07T09:04:14;12.88;;;3.55;;
52432;SDS011;38352;53.244;6.594;2023-08-07T09:06:43;12.65;;;3.08;;
52432;SDS011;38352;53.244;6.594;2023-08-07T09:09:09;10.07;;;2.85;;
52432;SDS011;38352;53.244;6.594;2023-08-07T09:11:38;12.65;;;3.30;;
52432;SDS011;38352;53.244;6.594;2023-08-07T09:14:04;10.25;;;2.60;;
52432;SDS011;38352;53.244;6.594;2023-08-07T09:16:30;9.48;;;2.90;;
52432;SDS011;38352;53.244;6.594;2023-08-07T09:18:57;15.68;;;2.65;;
52432;SDS011;38352;53.244;6.594;2023-08-07T09:21:23;12.20;;;2.95;;
52432;SDS011;38352;53.244;6.594;2023-08-07T09:23:52;8.80;;;3.05;;
52432;SDS011;38352;53.244;6.594;2023-08-07T09:26:21;12.13;;;3.28;;
52432;SDS011;38352;53.244;6.594;2023-08-07T09:28:48;12.35;;;2.70;;
52432;SDS011;38352;53.244;6.594;2023-08-07T09:31:16;8.30;;;2.22;;
52432;SDS011;38352;53.244;6.594;2023-08-07T09:33:46;6.63;;;2.15;;
52432;SDS011;38352;53.244;6.594;2023-08-07T09:36:13;9.35;;;2.60;;
52432;SDS011;38352;53.244;6.594;2023-08-07T09:38:39;6.50;;;2.70;;
52432;SDS011;38352;53.244;6.594;2023-08-07T09:41:05;11.75;;;2.85;;
52432;SDS011;38352;53.244;6.594;2023-08-07T09:43:35;10.50;;;3.45;;
52432;SDS011;38352;53.244;6.594;2023-08-07T09:46:02;10.23;;;2.80;;
52432;SDS011;38352;53.244;6.594;2023-08-07T09:48:28;9.50;;;3.10;;
52432;SDS011;38352;53.244;6.594;2023-08-07T09:50:54;10.27;;;2.45;;
52432;SDS011;38352;53.244;6.594;2023-08-07T09:53:27;8.57;;;2.10;;
52432;SDS011;38352;53.244;6.594;2023-08-07T09:55:56;6.10;;;2.05;;
52432;SDS011;38352;53.244;6.594;2023-08-07T09:58:23;25.77;;;3.58;;
52432;SDS011;38352;53.244;6.594;2023-08-07T10:00:50;8.90;;;2.70;;
52432;SDS011;38352;53.244;6.594;2023-08-07T10:03:20;8.63;;;3.05;;
52432;SDS011;38352;53.244;6.594;2023-08-07T10:05:47;12.82;;;3.53;;
52432;SDS011;38352;53.244;6.594;2023-08-07T10:08:14;8.45;;;2.40;;
52432;SDS011;38352;53.244;6.594;2023-08-07T10:10:43;13.18;;;3.55;;
52432;SDS011;38352;53.244;6.594;2023-08-07T10:13:09;11.23;;;2.90;;
52432;SDS011;38352;53.244;6.594;2023-08-07T10:15:38;8.00;;;2.78;;
52432;SDS011;38352;53.244;6.594;2023-08-07T10:18:06;10.90;;;2.78;;
52432;SDS011;38352;53.244;6.594;2023-08-07T10:20:32;8.32;;;2.15;;
52432;SDS011;38352;53.244;6.594;2023-08-07T10:23:08;7.88;;;2.50;;
52432;SDS011;38352;53.244;6.594;2023-08-07T10:25:35;11.63;;;2.88;;
52432;SDS011;38352;53.244;6.594;2023-08-07T10:28:02;8.35;;;2.72;;
52432;SDS011;38352;53.244;6.594;2023-08-07T10:30:30;8.38;;;2.72;;
52432;SDS011;38352;53.244;6.594;2023-08-07T10:32:57;10.93;;;2.72;;
52432;SDS011;38352;53.244;6.594;2023-08-07T10:35:24;11.95;;;2.42;;
52432;SDS011;38352;53.244;6.594;2023-08-07T10:37:51;6.32;;;2.65;;
52432;SDS011;38352;53.244;6.594;2023-08-07T10:40:19;7.90;;;2.78;;
52432;SDS011;38352;53.244;6.594;2023-08-07T10:42:56;7.57;;;2.53;;
52432;SDS011;38352;53.244;6.594;2023-08-07T10:45:26;8.02;;;2.25;;
52432;SDS011;38352;53.244;6.594;2023-08-07T10:47:56;10.40;;;2.88;;
52432;SDS011;38352;53.244;6.594;2023-08-07T10:50:32;7.47;;;2.00;;
52432;SDS011;38352;53.244;6.594;2023-08-07T10:53:02;8.27;;;2.45;;
52432;SDS011;38352;53.244;6.594;2023-08-07T10:55:46;10.85;;;2.15;;
52432;SDS011;38352;53.244;6.594;2023-08-07T10:58:26;3.72;;;1.30;;
52432;SDS011;38352;53.244;6.594;2023-08-07T11:01:15;5.50;;;2.00;;
52432;SDS011;38352;53.244;6.594;2023-08-07T11:03:40;8.50;;;2.20;;
52432;SDS011;38352;53.244;6.594;2023-08-07T11:06:06;5.53;;;1.55;;
52432;SDS011;38352;53.244;6.594;2023-08-07T11:08:34;9.90;;;2.33;;
52432;SDS011;38352;53.244;6.594;2023-08-07T11:11:04;7.63;;;2.30;;
52432;SDS011;38352;53.244;6.594;2023-08-07T11:13:31;6.25;;;1.90;;
52432;SDS011;38352;53.244;6.594;2023-08-07T11:15:57;9.40;;;2.45;;
52432;SDS011;38352;53.244;6.594;2023-08-07T11:18:24;7.60;;;2.70;;
52432;SDS011;38352;53.244;6.594;2023-08-07T11:20:57;9.48;;;2.47;;
52432;SDS011;38352;53.244;6.594;2023-08-07T11:23:25;15.52;;;2.67;;
52432;SDS011;38352;53.244;6.594;2023-08-07T11:25:52;6.30;;;2.53;;
52432;SDS011;38352;53.244;6.594;2023-08-07T11:28:19;7.72;;;2.40;;
52432;SDS011;38352;53.244;6.594;2023-08-07T11:30:51;7.47;;;2.30;;
52432;SDS011;38352;53.244;6.594;2023-08-07T11:33:21;12.02;;;3.20;;
52432;SDS011;38352;53.244;6.594;2023-08-07T11:35:49;5.93;;;2.17;;
52432;SDS011;38352;53.244;6.594;2023-08-07T11:38:37;9.70;;;2.88;;
52432;SDS011;38352;53.244;6.594;2023-08-07T11:41:03;7.53;;;2.15;;
52432;SDS011;38352;53.244;6.594;2023-08-07T11:43:30;6.30;;;2.05;;
52432;SDS011;38352;53.244;6.594;2023-08-07T11:45:57;7.88;;;2.50;;
52432;SDS011;38352;53.244;6.594;2023-08-07T11:48:24;8.35;;;2.22;;
52432;SDS011;38352;53.244;6.594;2023-08-07T11:50:51;7.60;;;2.50;;
52432;SDS011;38352;53.244;6.594;2023-08-07T11:53:17;5.15;;;1.77;;
52432;SDS011;38352;53.244;6.594;2023-08-07T11:56:02;6.75;;;1.52;;
52432;SDS011;38352;53.244;6.594;2023-08-07T11:58:34;4.95;;;1.48;;
52432;SDS011;38352;53.244;6.594;2023-08-07T12:01:04;5.45;;;1.58;;
52432;SDS011;38352;53.244;6.594;2023-08-07T12:03:31;6.40;;;1.70;;
52432;SDS011;38352;53.244;6.594;2023-08-07T12:06:01;9.27;;;1.90;;
52432;SDS011;38352;53.244;6.594;2023-08-07T12:08:37;5.68;;;1.98;;
52432;SDS011;38352;53.244;6.594;2023-08-07T12:11:04;7.15;;;2.25;;
52432;SDS011;38352;53.244;6.594;2023-08-07T12:13:31;5.50;;;2.10;;
52432;SDS011;38352;53.244;6.594;2023-08-07T12:16:00;7.80;;;2.35;;
52432;SDS011;38352;53.244;6.594;2023-08-07T12:18:26;4.82;;;2.42;;
52432;SDS011;38352;53.244;6.594;2023-08-07T12:20:56;6.97;;;2.40;;
52432;SDS011;38352;53.244;6.594;2023-08-07T12:23:23;4.95;;;2.13;;
52432;SDS011;38352;53.244;6.594;2023-08-07T12:25:49;9.45;;;2.05;;
52432;SDS011;38352;53.244;6.594;2023-08-07T12:28:15;6.22;;;1.90;;
52432;SDS011;38352;53.244;6.594;2023-08-07T12:30:44;6.53;;;2.13;;
52432;SDS011;38352;53.244;6.594;2023-08-07T12:33:10;5.90;;;2.22;;
52432;SDS011;38352;53.244;6.594;2023-08-07T12:35:36;5.30;;;1.60;;
52432;SDS011;38352;53.244;6.594;2023-08-07T12:38:02;9.95;;;2.53;;
52432;SDS011;38352;53.244;6.594;2023-08-07T12:40:29;6.03;;;1.95;;
52432;SDS011;38352;53.244;6.594;2023-08-07T12:42:56;7.57;;;2.30;;
52432;SDS011;38352;53.244;6.594;2023-08-07T12:45:22;5.82;;;2.40;;
52432;SDS011;38352;53.244;6.594;2023-08-07T12:47:48;7.88;;;1.98;;
52432;SDS011;38352;53.244;6.594;2023-08-07T12:50:15;8.77;;;2.30;;
52432;SDS011;38352;53.244;6.594;2023-08-07T12:52:41;7.03;;;2.47;;
52432;SDS011;38352;53.244;6.594;2023-08-07T12:55:07;6.32;;;2.20;;
52432;SDS011;38352;53.244;6.594;2023-08-07T12:57:34;9.73;;;3.03;;
52432;SDS011;38352;53.244;6.594;2023-08-07T13:00:00;9.35;;;2.70;;
52432;SDS011;38352;53.244;6.594;2023-08-07T13:02:27;7.20;;;2.95;;
52432;SDS011;38352;53.244;6.594;2023-08-07T13:04:53;8.32;;;3.10;;
52432;SDS011;38352;53.244;6.594;2023-08-07T13:07:19;7.22;;;2.53;;
52432;SDS011;38352;53.244;6.594;2023-08-07T13:09:45;7.93;;;2.67;;
52432;SDS011;38352;53.244;6.594;2023-08-07T13:12:11;9.43;;;2.90;;
52432;SDS011;38352;53.244;6.594;2023-08-07T13:14:37;6.55;;;2.50;;
52432;SDS011;38352;53.244;6.594;2023-08-07T13:17:04;9.15;;;3.30;;
52432;SDS011;38352;53.244;6.594;2023-08-07T13:19:30;6.47;;;2.38;;
52432;SDS011;38352;53.244;6.594;2023-08-07T13:21:56;7.47;;;2.38;;
52432;SDS011;38352;53.244;6.594;2023-08-07T13:24:22;12.57;;;3.15;;
52432;SDS011;38352;53.244;6.594;2023-08-07T13:26:48;8.93;;;2.63;;
52432;SDS011;38352;53.244;6.594;2023-08-07T13:29:14;7.80;;;2.90;;
52432;SDS011;38352;53.244;6.594;2023-08-07T13:31:40;10.48;;;2.38;;
52432;SDS011;38352;53.244;6.594;2023-08-07T13:34:06;17.30;;;3.03;;
52432;SDS011;38352;53.244;6.594;2023-08-07T13:36:34;8.70;;;2.60;;
52432;SDS011;38352;53.244;6.594;2023-08-07T13:39:00;7.35;;;2.10;;
52432;SDS011;38352;53.244;6.594;2023-08-07T13:41:26;6.75;;;1.65;;
52432;SDS011;38352;53.244;6.594;2023-08-07T13:43:53;9.45;;;2.38;;
52432;SDS011;38352;53.244;6.594;2023-08-07T13:46:19;7.30;;;2.15;;
52432;SDS011;38352;53.244;6.594;2023-08-07T13:48:45;9.13;;;2.47;;
52432;SDS011;38352;53.244;6.594;2023-08-07T13:51:11;8.13;;;2.53;;
52432;SDS011;38352;53.244;6.594;2023-08-07T13:53:37;11.02;;;2.83;;
52432;SDS011;38352;53.244;6.594;2023-08-07T13:56:03;7.50;;;2.00;;
52432;SDS011;38352;53.244;6.594;2023-08-07T13:58:29;12.25;;;3.00;;
52432;SDS011;38352;53.244;6.594;2023-08-07T14:00:55;7.65;;;3.00;;
52432;SDS011;38352;53.244;6.594;2023-08-07T14:03:22;9.13;;;2.92;;
52432;SDS011;38352;53.244;6.594;2023-08-07T14:05:49;9.40;;;3.30;;
52432;SDS011;38352;53.244;6.594;2023-08-07T14:08:15;11.35;;;2.67;;
52432;SDS011;38352;53.244;6.594;2023-08-07T14:10:41;9.55;;;2.97;;
52432;SDS011;38352;53.244;6.594;2023-08-07T14:13:07;8.48;;;2.50;;
52432;SDS011;38352;53.244;6.594;2023-08-07T14:15:34;10.48;;;3.35;;
52432;SDS011;38352;53.244;6.594;2023-08-07T14:18:01;7.75;;;2.58;;
52432;SDS011;38352;53.244;6.594;2023-08-07T14:20:27;7.53;;;2.33;;
52432;SDS011;38352;53.244;6.594;2023-08-07T14:22:53;6.93;;;2.47;;
52432;SDS011;38352;53.244;6.594;2023-08-07T14:25:19;11.60;;;2.47;;
52432;SDS011;38352;53.244;6.594;2023-08-07T14:27:47;11.30;;;3.28;;
52432;SDS011;38352;53.244;6.594;2023-08-07T14:30:13;5.72;;;2.03;;
52432;SDS011;38352;53.244;6.594;2023-08-07T14:32:39;7.05;;;2.28;;
52432;SDS011;38352;53.244;6.594;2023-08-07T14:35:07;9.20;;;2.75;;
52432;SDS011;38352;53.244;6.594;2023-08-07T14:37:33;6.65;;;2.33;;
52432;SDS011;38352;53.244;6.594;2023-08-07T14:39:59;6.72;;;2.08;;
52432;SDS011;38352;53.244;6.594;2023-08-07T14:42:26;6.20;;;2.50;;
52432;SDS011;38352;53.244;6.594;2023-08-07T14:44:52;4.97;;;1.58;;
52432;SDS011;38352;53.244;6.594;2023-08-07T14:47:18;8.98;;;2.13;;
52432;SDS011;38352;53.244;6.594;2023-08-07T14:49:44;5.63;;;1.67;;
52432;SDS011;38352;53.244;6.594;2023-08-07T14:52:10;10.07;;;1.88;;
52432;SDS011;38352;53.244;6.594;2023-08-07T14:54:36;7.88;;;2.30;;